Time;durP1;ratioP1;P1;durP2;ratioP2;P2;SDS_P1;SDS_P2;PMS_P1;PMS_P2;Temp;Humidity;BMP_temperature;BMP_pressure;BME280_temperature;BME280_humidity;BME280_pressure;Samples;Min_cycle;Max_cycle;Signal;HPM_P1;HPM_P2
2023/09/25 00:02:33;;;;;;;9.65;1.48;;;;;;;;;;5097294;28;20064;-74
2023/09/25 00:05:45;;;;;;;13.10;1.80;;;;;;;;;;5090049;28;20056;-73
2023/09/25 00:08:33;;;;;;;9.05;1.90;;;;;;;;;;5084147;28;20478;-73
2023/09/25 00:11:21;;;;;;;7.25;1.88;;;;;;;;;;5078056;28;20533;-73
2023/09/25 00:17:36;;;;;;;14.88;1.70;;;;;;;;;;5099741;28;20044;-73
2023/09/25 00:20:29;;;;;;;15.98;1.77;;;;;;;;;;5088830;28;20052;-73
2023/09/25 00:23:38;;;;;;;10.27;1.63;;;;;;;;;;5064522;28;20068;-73
2023/09/25 00:30:33;;;;;;;6.85;1.50;;;;;;;;;;5073616;28;20062;-73
2023/09/25 00:33:06;;;;;;;11.93;1.67;;;;;;;;;;5089513;28;20050;-73
2023/09/25 00:35:42;;;;;;;9.98;1.92;;;;;;;;;;5093844;28;20724;-73
2023/09/25 00:38:13;;;;;;;11.60;1.77;;;;;;;;;;5092676;28;20510;-73
2023/09/25 00:40:44;;;;;;;10.48;1.70;;;;;;;;;;5096303;28;20044;-72
2023/09/25 00:43:15;;;;;;;12.80;1.80;;;;;;;;;;5087748;28;20044;-73
2023/09/25 00:45:48;;;;;;;10.13;1.73;;;;;;;;;;5084445;28;20047;-73
2023/09/25 00:48:26;;;;;;;9.52;2.05;;;;;;;;;;5089485;28;21132;-73
2023/09/25 00:51:04;;;;;;;11.20;1.75;;;;;;;;;;5089458;28;20050;-73
2023/09/25 00:53:36;;;;;;;5.00;1.40;;;;;;;;;;5103425;28;20518;-72
2023/09/25 00:56:09;;;;;;;8.57;1.65;;;;;;;;;;5088533;28;20613;-73
2023/09/25 00:58:39;;;;;;;12.95;1.98;;;;;;;;;;5069283;28;20048;-73
2023/09/25 01:01:09;;;;;;;13.80;1.67;;;;;;;;;;5088614;28;20050;-73
2023/09/25 01:03:40;;;;;;;9.00;1.75;;;;;;;;;;5070698;28;20407;-73
2023/09/25 01:06:11;;;;;;;10.75;1.90;;;;;;;;;;5069827;28;20055;-73
2023/09/25 01:08:43;;;;;;;10.43;1.95;;;;;;;;;;5079204;28;20044;-72
2023/09/25 01:11:13;;;;;;;8.38;1.80;;;;;;;;;;5058118;28;20060;-74
2023/09/25 01:13:45;;;;;;;10.32;1.88;;;;;;;;;;5078253;28;20462;-73
2023/09/25 01:16:16;;;;;;;10.32;1.73;;;;;;;;;;5061465;28;20052;-73
2023/09/25 01:18:48;;;;;;;7.15;1.80;;;;;;;;;;5067759;28;20047;-73
2023/09/25 01:21:19;;;;;;;13.50;1.52;;;;;;;;;;5092855;28;20065;-73
2023/09/25 01:23:49;;;;;;;9.93;1.70;;;;;;;;;;5073658;28;20063;-73
2023/09/25 01:26:21;;;;;;;13.02;1.58;;;;;;;;;;5096077;28;20036;-73
2023/09/25 01:28:52;;;;;;;10.88;1.85;;;;;;;;;;5091893;28;20055;-73
2023/09/25 01:31:22;;;;;;;17.83;2.30;;;;;;;;;;5090949;28;20418;-73
2023/09/25 01:33:52;;;;;;;9.93;1.90;;;;;;;;;;5092115;28;20044;-73
2023/09/25 01:36:23;;;;;;;15.68;2.03;;;;;;;;;;5074804;28;20044;-73
2023/09/25 01:38:56;;;;;;;13.10;1.73;;;;;;;;;;5091418;28;20055;-73
2023/09/25 01:41:26;;;;;;;15.40;2.10;;;;;;;;;;5071589;28;20055;-73
2023/09/25 01:43:56;;;;;;;14.52;2.05;;;;;;;;;;5091639;28;20043;-73
2023/09/25 01:46:27;;;;;;;9.32;1.67;;;;;;;;;;5092531;28;20044;-73
2023/09/25 01:48:58;;;;;;;13.70;1.75;;;;;;;;;;5091729;28;20040;-73
2023/09/25 01:51:28;;;;;;;18.10;2.15;;;;;;;;;;5090426;28;20659;-73
2023/09/25 01:53:58;;;;;;;9.18;1.40;;;;;;;;;;5091461;28;20421;-73
2023/09/25 01:56:29;;;;;;;14.55;2.08;;;;;;;;;;5055046;28;20051;-73
2023/09/25 01:58:59;;;;;;;8.48;1.65;;;;;;;;;;5062411;28;20055;-73
2023/09/25 02:01:29;;;;;;;14.52;2.00;;;;;;;;;;5063854;28;20044;-73
2023/09/25 02:03:59;;;;;;;16.42;2.13;;;;;;;;;;5082294;28;20074;-73
2023/09/25 02:06:43;;;;;;;11.93;2.03;;;;;;;;;;5061689;28;20083;-73
2023/09/25 02:09:30;;;;;;;8.88;2.25;;;;;;;;;;5080698;28;20495;-73
2023/09/25 02:12:18;;;;;;;9.45;1.45;;;;;;;;;;5063705;28;20048;-73
2023/09/25 02:18:19;;;;;;;8.73;1.60;;;;;;;;;;5065250;28;20435;-74
2023/09/25 02:21:10;;;;;;;13.45;1.70;;;;;;;;;;5063455;28;20514;-73
2023/09/25 02:23:58;;;;;;;8.18;1.30;;;;;;;;;;5082617;28;20487;-73
2023/09/25 02:30:13;;;;;;;10.73;1.52;;;;;;;;;;5083770;28;20118;-73
2023/09/25 02:33:10;;;;;;;13.45;2.50;;;;;;;;;;5065381;28;20063;-73
2023/09/25 02:35:45;;;;;;;10.27;1.85;;;;;;;;;;5065961;28;20063;-73
2023/09/25 02:38:15;;;;;;;8.00;1.40;;;;;;;;;;5084512;28;20098;-73
2023/09/25 02:40:45;;;;;;;13.93;1.60;;;;;;;;;;5066373;28;20052;-73
2023/09/25 02:43:16;;;;;;;11.68;1.92;;;;;;;;;;5083252;28;20048;-73
2023/09/25 02:45:47;;;;;;;16.33;1.92;;;;;;;;;;5065163;28;20052;-73
2023/09/25 02:48:17;;;;;;;9.07;1.60;;;;;;;;;;5083712;28;20044;-73
2023/09/25 02:50:49;;;;;;;12.55;1.88;;;;;;;;;;5049634;28;20063;-73
2023/09/25 02:53:20;;;;;;;8.40;1.63;;;;;;;;;;5083486;28;20048;-73
2023/09/25 02:55:51;;;;;;;12.10;1.60;;;;;;;;;;5083159;28;20044;-73
2023/09/25 02:58:22;;;;;;;13.05;2.13;;;;;;;;;;5065510;28;20052;-72
2023/09/25 03:00:51;;;;;;;9.20;1.42;;;;;;;;;;5083557;28;20047;-73
2023/09/25 03:03:22;;;;;;;8.85;1.67;;;;;;;;;;5083633;28;20070;-72
2023/09/25 03:05:53;;;;;;;21.92;2.50;;;;;;;;;;5065287;28;20055;-73
2023/09/25 03:08:23;;;;;;;15.95;1.95;;;;;;;;;;5082739;28;20052;-73
2023/09/25 03:10:53;;;;;;;12.90;2.13;;;;;;;;;;5083485;28;20052;-73
2023/09/25 03:13:23;;;;;;;14.07;2.00;;;;;;;;;;5083387;28;20058;-73
2023/09/25 03:15:54;;;;;;;11.80;1.80;;;;;;;;;;5064589;28;20063;-73
2023/09/25 03:18:26;;;;;;;11.15;2.03;;;;;;;;;;5064875;28;20056;-73
2023/09/25 03:20:56;;;;;;;9.77;2.05;;;;;;;;;;5082905;28;20040;-72
2023/09/25 03:23:26;;;;;;;11.00;1.60;;;;;;;;;;5064754;28;20075;-73
2023/09/25 03:25:57;;;;;;;15.43;1.92;;;;;;;;;;5065154;28;20060;-73
2023/09/25 03:28:28;;;;;;;10.52;1.55;;;;;;;;;;5064354;28;20056;-73
2023/09/25 03:30:58;;;;;;;13.15;1.95;;;;;;;;;;5064507;28;20631;-73
2023/09/25 03:33:29;;;;;;;11.57;1.63;;;;;;;;;;5063651;28;20490;-72
2023/09/25 03:35:59;;;;;;;13.30;2.25;;;;;;;;;;5083356;28;20040;-73
2023/09/25 03:38:31;;;;;;;12.77;1.80;;;;;;;;;;5083347;28;20062;-73
2023/09/25 03:41:02;;;;;;;13.88;1.83;;;;;;;;;;5082203;28;20048;-73
2023/09/25 03:43:32;;;;;;;12.93;1.83;;;;;;;;;;5064051;28;20067;-74
2023/09/25 03:46:03;;;;;;;14.90;1.70;;;;;;;;;;5082447;28;20055;-73
2023/09/25 03:48:35;;;;;;;15.77;2.25;;;;;;;;;;5064141;28;20063;-73
2023/09/25 03:51:05;;;;;;;9.77;1.60;;;;;;;;;;5063778;28;20540;-74
2023/09/25 03:53:35;;;;;;;13.60;1.98;;;;;;;;;;5082438;28;20048;-73
2023/09/25 03:56:05;;;;;;;16.80;2.63;;;;;;;;;;5048310;28;20060;-73
2023/09/25 03:58:35;;;;;;;14.63;1.83;;;;;;;;;;5064788;28;20091;-73
2023/09/25 04:01:06;;;;;;;8.90;1.60;;;;;;;;;;5082596;28;20051;-74
2023/09/25 04:03:37;;;;;;;11.95;1.70;;;;;;;;;;5082725;28;20051;-74
2023/09/25 04:06:08;;;;;;;18.88;2.33;;;;;;;;;;5082256;28;20502;-73
2023/09/25 04:08:38;;;;;;;5.53;1.55;;;;;;;;;;5081785;28;20087;-73
2023/09/25 04:11:10;;;;;;;17.02;2.15;;;;;;;;;;5081983;28;20048;-73
2023/09/25 04:13:41;;;;;;;10.20;2.20;;;;;;;;;;5081843;28;20423;-73
2023/09/25 04:16:13;;;;;;;14.10;1.95;;;;;;;;;;5064584;28;20052;-74
2023/09/25 04:18:45;;;;;;;12.55;1.80;;;;;;;;;;5081846;28;20052;-73
2023/09/25 04:21:17;;;;;;;12.30;1.73;;;;;;;;;;5081758;28;20055;-72
2023/09/25 04:23:49;;;;;;;12.30;1.80;;;;;;;;;;5082358;28;20056;-73
2023/09/25 04:26:19;;;;;;;10.80;1.95;;;;;;;;;;5082317;28;20036;-74
2023/09/25 04:28:50;;;;;;;14.88;1.55;;;;;;;;;;5081934;28;20055;-74
2023/09/25 04:31:21;;;;;;;12.60;1.65;;;;;;;;;;5082337;28;20044;-74
2023/09/25 04:33:52;;;;;;;10.48;1.60;;;;;;;;;;5081794;28;20074;-73
2023/09/25 04:36:23;;;;;;;10.70;1.65;;;;;;;;;;5063656;28;20059;-74
2023/09/25 04:38:53;;;;;;;10.73;1.85;;;;;;;;;;5082519;28;20047;-73
2023/09/25 04:41:24;;;;;;;11.48;1.67;;;;;;;;;;5081971;28;20051;-74
2023/09/25 04:43:55;;;;;;;22.23;2.05;;;;;;;;;;5081921;28;20048;-74
2023/09/25 04:46:24;;;;;;;12.68;1.90;;;;;;;;;;5081724;28;20044;-73
2023/09/25 04:48:55;;;;;;;13.93;1.65;;;;;;;;;;5082014;28;20050;-74
2023/09/25 04:51:24;;;;;;;11.60;1.90;;;;;;;;;;5081913;28;20044;-74
2023/09/25 04:53:55;;;;;;;20.17;2.22;;;;;;;;;;5086255;28;20040;-74
2023/09/25 04:56:27;;;;;;;13.73;1.75;;;;;;;;;;5086048;28;20048;-74
2023/09/25 04:59:00;;;;;;;11.60;1.52;;;;;;;;;;5085766;28;20052;-73
2023/09/25 05:01:30;;;;;;;14.88;1.90;;;;;;;;;;5085536;28;20048;-73
2023/09/25 05:04:00;;;;;;;10.25;1.48;;;;;;;;;;5086052;28;20044;-74
2023/09/25 05:06:31;;;;;;;9.95;1.33;;;;;;;;;;5085645;28;20044;-73
2023/09/25 05:09:02;;;;;;;18.10;2.10;;;;;;;;;;5085270;28;20036;-74
2023/09/25 05:11:32;;;;;;;9.48;1.40;;;;;;;;;;5085553;28;20044;-73
2023/09/25 05:14:05;;;;;;;20.15;2.35;;;;;;;;;;5085256;28;20541;-74
2023/09/25 05:16:35;;;;;;;12.32;2.10;;;;;;;;;;5067261;28;20048;-74
2023/09/25 05:19:05;;;;;;;9.73;1.20;;;;;;;;;;5085816;28;20063;-74
2023/09/25 05:21:35;;;;;;;17.17;2.10;;;;;;;;;;5085407;28;20059;-73
2023/09/25 05:24:06;;;;;;;12.50;1.75;;;;;;;;;;5085508;28;20052;-73
2023/09/25 05:26:37;;;;;;;13.68;1.65;;;;;;;;;;5085824;28;20503;-74
2023/09/25 05:29:07;;;;;;;11.48;1.65;;;;;;;;;;5084904;28;20044;-73
2023/09/25 05:31:37;;;;;;;9.88;1.52;;;;;;;;;;5066819;28;20048;-72
2023/09/25 05:34:09;;;;;;;16.23;2.00;;;;;;;;;;5084737;28;20055;-73
2023/09/25 05:36:40;;;;;;;10.70;2.10;;;;;;;;;;5085024;28;20069;-72
2023/09/25 05:39:10;;;;;;;7.25;1.30;;;;;;;;;;5085057;28;20498;-73
2023/09/25 05:41:41;;;;;;;12.82;1.83;;;;;;;;;;5066734;28;20052;-73
2023/09/25 05:44:11;;;;;;;11.75;1.83;;;;;;;;;;5084744;28;20048;-73
2023/09/25 05:46:42;;;;;;;11.57;2.22;;;;;;;;;;5084964;28;20044;-73
2023/09/25 05:49:13;;;;;;;8.93;1.33;;;;;;;;;;5085105;28;20040;-73
2023/09/25 05:51:43;;;;;;;11.95;1.80;;;;;;;;;;5067679;28;20056;-73
2023/09/25 05:54:13;;;;;;;12.18;1.75;;;;;;;;;;5085353;28;20052;-73
2023/09/25 05:56:45;;;;;;;10.32;1.40;;;;;;;;;;5067718;28;20048;-73
2023/09/25 05:59:16;;;;;;;6.65;1.48;;;;;;;;;;5084885;28;20080;-73
2023/09/25 06:01:47;;;;;;;7.20;1.50;;;;;;;;;;5085021;28;20048;-73
2023/09/25 06:04:18;;;;;;;13.85;1.80;;;;;;;;;;5064758;28;20051;-74
2023/09/25 06:06:48;;;;;;;13.35;2.03;;;;;;;;;;5084328;28;20051;-73
2023/09/25 06:09:19;;;;;;;8.43;1.85;;;;;;;;;;5084096;28;20051;-74
2023/09/25 06:11:50;;;;;;;10.02;1.88;;;;;;;;;;5084458;28;20427;-74
2023/09/25 06:14:21;;;;;;;15.00;1.65;;;;;;;;;;5084371;28;20051;-73
2023/09/25 06:16:54;;;;;;;15.50;2.15;;;;;;;;;;5084503;28;20071;-73
2023/09/25 06:19:27;;;;;;;13.60;2.03;;;;;;;;;;5084153;28;20048;-73
2023/09/25 06:21:57;;;;;;;16.08;1.60;;;;;;;;;;5084377;28;20044;-73
2023/09/25 06:24:27;;;;;;;11.82;1.90;;;;;;;;;;5084106;28;20056;-73
2023/09/25 06:26:57;;;;;;;8.02;1.52;;;;;;;;;;5084433;28;20052;-73
2023/09/25 06:29:27;;;;;;;9.05;1.48;;;;;;;;;;5084545;28;20044;-73
2023/09/25 06:31:58;;;;;;;10.82;1.63;;;;;;;;;;5084008;28;20058;-74
2023/09/25 06:34:30;;;;;;;17.70;1.83;;;;;;;;;;5084367;28;20517;-72
2023/09/25 06:37:00;;;;;;;12.13;1.90;;;;;;;;;;5084498;28;20040;-73
2023/09/25 06:39:30;;;;;;;18.88;1.92;;;;;;;;;;5066105;28;20051;-73
2023/09/25 06:42:01;;;;;;;16.95;1.83;;;;;;;;;;5083885;28;20047;-73
2023/09/25 06:44:31;;;;;;;19.95;1.95;;;;;;;;;;5084077;28;20048;-73
2023/09/25 06:47:03;;;;;;;6.70;1.65;;;;;;;;;;5083560;28;20044;-72
2023/09/25 06:49:33;;;;;;;12.75;1.70;;;;;;;;;;5083818;28;20044;-73
2023/09/25 06:52:04;;;;;;;19.58;1.83;;;;;;;;;;5065800;28;20435;-73
2023/09/25 06:54:34;;;;;;;8.13;1.70;;;;;;;;;;5083473;28;20361;-73
2023/09/25 06:57:06;;;;;;;5.88;1.25;;;;;;;;;;5083690;28;20043;-73
2023/09/25 06:59:36;;;;;;;16.38;1.58;;;;;;;;;;5083400;28;20040;-73
2023/09/25 07:02:07;;;;;;;9.23;1.40;;;;;;;;;;5083333;28;20554;-73
2023/09/25 07:04:37;;;;;;;12.60;1.60;;;;;;;;;;5083149;28;20474;-73
2023/09/25 07:07:08;;;;;;;15.98;2.03;;;;;;;;;;5083923;28;20044;-73
2023/09/25 07:09:38;;;;;;;14.10;1.63;;;;;;;;;;5083951;28;20055;-72
2023/09/25 07:12:12;;;;;;;13.57;2.33;;;;;;;;;;5083535;28;20056;-73
2023/09/25 07:14:55;;;;;;;9.32;1.88;;;;;;;;;;5083869;28;20052;-73
2023/09/25 07:17:27;;;;;;;10.82;1.23;;;;;;;;;;5083064;28;20494;-73
2023/09/25 07:19:59;;;;;;;10.18;2.42;;;;;;;;;;5083550;28;20118;-73
2023/09/25 07:22:30;;;;;;;10.43;1.55;;;;;;;;;;5082858;28;20067;-73
2023/09/25 07:25:01;;;;;;;13.70;2.05;;;;;;;;;;5082983;28;20063;-73
2023/09/25 07:27:33;;;;;;;22.90;2.63;;;;;;;;;;5083154;28;20044;-73
2023/09/25 07:30:06;;;;;;;20.67;1.88;;;;;;;;;;5082689;28;20498;-73
2023/09/25 07:32:38;;;;;;;16.88;1.92;;;;;;;;;;5082986;28;20107;-73
2023/09/25 07:35:11;;;;;;;15.88;2.20;;;;;;;;;;5082624;28;20052;-73
2023/09/25 07:37:44;;;;;;;17.42;1.88;;;;;;;;;;5083215;28;20051;-72
2023/09/25 07:40:18;;;;;;;14.50;1.75;;;;;;;;;;5082829;28;20048;-73
2023/09/25 07:42:49;;;;;;;12.13;1.80;;;;;;;;;;5082913;28;20079;-73
2023/09/25 07:45:22;;;;;;;13.48;1.85;;;;;;;;;;5082805;28;20048;-73
2023/09/25 07:47:54;;;;;;;6.03;1.08;;;;;;;;;;5083083;28;20051;-73
2023/09/25 07:50:25;;;;;;;13.60;1.77;;;;;;;;;;5083458;28;20571;-73
2023/09/25 07:52:55;;;;;;;12.07;1.98;;;;;;;;;;5064932;28;20048;-73
2023/09/25 07:55:26;;;;;;;10.35;1.83;;;;;;;;;;5082811;28;20044;-73
2023/09/25 07:57:56;;;;;;;8.93;1.75;;;;;;;;;;5082845;28;20765;-73
2023/09/25 08:00:36;;;;;;;12.57;1.83;;;;;;;;;;5082169;28;20048;-73
2023/09/25 08:03:08;;;;;;;13.45;1.85;;;;;;;;;;5066248;28;20055;-73
2023/09/25 08:05:39;;;;;;;15.13;1.80;;;;;;;;;;5082374;28;20070;-74
2023/09/25 08:08:11;;;;;;;19.95;3.17;;;;;;;;;;5082529;28;20063;-73
2023/09/25 08:10:45;;;;;;;14.18;1.77;;;;;;;;;;5083498;28;20047;-73
2023/09/25 08:13:17;;;;;;;15.30;1.80;;;;;;;;;;5082811;28;20051;-73
2023/09/25 08:15:49;;;;;;;11.10;1.48;;;;;;;;;;5063335;28;20048;-73
2023/09/25 08:18:21;;;;;;;10.43;1.67;;;;;;;;;;5082594;28;20048;-73
2023/09/25 08:20:52;;;;;;;12.15;1.95;;;;;;;;;;5082610;28;20410;-73
2023/09/25 08:23:22;;;;;;;11.07;1.50;;;;;;;;;;5081839;28;20044;-73
2023/09/25 08:25:53;;;;;;;7.47;1.48;;;;;;;;;;5081578;28;20059;-73
2023/09/25 08:28:24;;;;;;;10.50;1.27;;;;;;;;;;5081773;28;20047;-74
2023/09/25 08:30:54;;;;;;;10.02;1.50;;;;;;;;;;5082186;28;20178;-73
2023/09/25 08:33:25;;;;;;;12.05;1.65;;;;;;;;;;5082873;28;20039;-72
2023/09/25 08:35:55;;;;;;;5.47;1.23;;;;;;;;;;5081706;28;20043;-73
2023/09/25 08:38:25;;;;;;;10.43;1.55;;;;;;;;;;5081525;28;20056;-73
2023/09/25 08:40:56;;;;;;;16.65;1.67;;;;;;;;;;5082457;28;20048;-73
2023/09/25 08:43:28;;;;;;;8.90;1.63;;;;;;;;;;5081796;28;20040;-73
2023/09/25 08:45:59;;;;;;;12.65;1.90;;;;;;;;;;5082023;28;20110;-73
2023/09/25 08:48:30;;;;;;;12.60;1.50;;;;;;;;;;5082226;28;20048;-73
2023/09/25 08:51:01;;;;;;;10.27;1.90;;;;;;;;;;5082584;28;20407;-73
2023/09/25 08:53:33;;;;;;;9.68;1.58;;;;;;;;;;5063461;28;20051;-73
2023/09/25 08:56:04;;;;;;;8.63;1.10;;;;;;;;;;5081457;28;20055;-73
2023/09/25 08:58:35;;;;;;;10.88;1.70;;;;;;;;;;5081510;28;20078;-73
2023/09/25 09:01:05;;;;;;;12.38;1.85;;;;;;;;;;5047164;28;20063;-74
2023/09/25 09:03:36;;;;;;;11.18;1.77;;;;;;;;;;5081879;28;20048;-73
2023/09/25 09:06:07;;;;;;;9.02;1.60;;;;;;;;;;5082493;28;20402;-73
2023/09/25 09:08:37;;;;;;;14.45;2.28;;;;;;;;;;5081639;28;20052;-74
2023/09/25 09:11:11;;;;;;;9.18;1.92;;;;;;;;;;5063440;28;20079;-73
2023/09/25 09:13:49;;;;;;;9.05;1.85;;;;;;;;;;5081771;28;20052;-73
2023/09/25 09:16:20;;;;;;;7.15;1.40;;;;;;;;;;5082963;28;20052;-73
2023/09/25 09:19:09;;;;;;;5.50;1.27;;;;;;;;;;5082031;28;20541;-73
2023/09/25 09:21:44;;;;;;;8.95;1.70;;;;;;;;;;5063983;28;20055;-73
2023/09/25 09:24:24;;;;;;;6.22;1.55;;;;;;;;;;5081798;28;20063;-73
2023/09/25 09:26:56;;;;;;;8.10;1.65;;;;;;;;;;5081926;28;20036;-73
2023/09/25 09:29:27;;;;;;;10.68;1.80;;;;;;;;;;5082007;28;20070;-75
2023/09/25 09:31:57;;;;;;;12.15;1.38;;;;;;;;;;5081475;28;20048;-74
2023/09/25 09:34:27;;;;;;;11.05;1.73;;;;;;;;;;5081327;28;20907;-74
2023/09/25 09:36:58;;;;;;;13.63;1.90;;;;;;;;;;5081707;28;20043;-74
2023/09/25 09:39:34;;;;;;;11.68;2.08;;;;;;;;;;5083106;28;20062;-74
2023/09/25 09:42:08;;;;;;;9.95;1.40;;;;;;;;;;5084811;28;20052;-74
2023/09/25 09:44:38;;;;;;;10.02;1.92;;;;;;;;;;5085287;28;20047;-74
2023/09/25 09:47:08;;;;;;;11.00;1.95;;;;;;;;;;5085409;28;20052;-74
2023/09/25 09:49:40;;;;;;;8.90;1.52;;;;;;;;;;5085550;28;20494;-74
2023/09/25 09:52:11;;;;;;;12.50;1.98;;;;;;;;;;5085185;28;20526;-74
2023/09/25 09:54:45;;;;;;;12.77;2.08;;;;;;;;;;5085266;28;20040;-73
2023/09/25 09:57:16;;;;;;;9.98;1.50;;;;;;;;;;5085242;28;20040;-74
2023/09/25 09:59:48;;;;;;;11.65;1.80;;;;;;;;;;5084876;28;20051;-72
2023/09/25 10:02:21;;;;;;;12.80;2.10;;;;;;;;;;5084873;28;20059;-74
2023/09/25 10:04:53;;;;;;;9.98;1.73;;;;;;;;;;5084255;28;20442;-74
2023/09/25 10:07:24;;;;;;;11.70;1.77;;;;;;;;;;5084670;28;20048;-74
2023/09/25 10:10:07;;;;;;;4.75;1.15;;;;;;;;;;5066912;28;20063;-74
2023/09/25 10:12:50;;;;;;;5.78;1.38;;;;;;;;;;5084982;28;20040;-76
2023/09/25 10:15:25;;;;;;;5.18;1.10;;;;;;;;;;5084401;28;20044;-75
2023/09/25 10:17:56;;;;;;;5.75;1.40;;;;;;;;;;5084550;28;21122;-75
2023/09/25 10:20:41;;;;;;;5.78;1.27;;;;;;;;;;5083951;28;20040;-76
2023/09/25 10:23:23;;;;;;;10.93;1.48;;;;;;;;;;5066767;28;20074;-78
2023/09/25 10:25:57;;;;;;;4.82;1.20;;;;;;;;;;5084025;28;20087;-75
2023/09/25 10:28:51;;;;;;;5.75;1.42;;;;;;;;;;5084090;28;20803;-75
2023/09/25 10:31:25;;;;;;;7.85;1.40;;;;;;;;;;5083758;28;20530;-74
2023/09/25 10:33:59;;;;;;;7.57;1.45;;;;;;;;;;5088487;28;20048;-75
2023/09/25 10:36:38;;;;;;;6.70;1.75;;;;;;;;;;5093186;28;20932;-74
2023/09/25 10:39:15;;;;;;;7.07;2.03;;;;;;;;;;5094395;28;20047;-74
2023/09/25 10:41:57;;;;;;;8.23;1.23;;;;;;;;;;5103185;28;20520;-77
2023/09/25 10:44:29;;;;;;;8.35;2.08;;;;;;;;;;5104624;28;20063;-74
2023/09/25 10:47:06;;;;;;;7.57;1.65;;;;;;;;;;5104756;28;20848;-76
2023/09/25 10:49:40;;;;;;;10.07;1.48;;;;;;;;;;5104321;28;20052;-75
2023/09/25 10:52:11;;;;;;;4.63;1.40;;;;;;;;;;5103821;28;20047;-74
2023/09/25 10:54:42;;;;;;;6.45;1.20;;;;;;;;;;5103597;28;20048;-74
2023/09/25 10:57:12;;;;;;;3.80;1.27;;;;;;;;;;5118873;27;20047;-75
2023/09/25 10:59:42;;;;;;;9.73;1.80;;;;;;;;;;5103842;28;20055;-73
2023/09/25 11:02:15;;;;;;;8.18;1.15;;;;;;;;;;5103871;28;20039;-74
2023/09/25 11:04:48;;;;;;;8.15;1.58;;;;;;;;;;5084581;28;20059;-72
2023/09/25 11:07:20;;;;;;;8.00;1.70;;;;;;;;;;5103596;28;20805;-73
2023/09/25 11:09:53;;;;;;;9.25;1.52;;;;;;;;;;5103419;28;20043;-72
2023/09/25 11:12:23;;;;;;;12.13;1.90;;;;;;;;;;5103698;28;20055;-73
2023/09/25 11:14:54;;;;;;;5.45;1.65;;;;;;;;;;5103798;28;20043;-72
2023/09/25 11:17:26;;;;;;;10.77;1.75;;;;;;;;;;5103793;28;20043;-73
2023/09/25 11:19:57;;;;;;;6.60;1.90;;;;;;;;;;5103486;28;20039;-73
2023/09/25 11:22:28;;;;;;;11.77;1.95;;;;;;;;;;5103393;28;20047;-73
2023/09/25 11:25:00;;;;;;;6.55;1.63;;;;;;;;;;5085323;28;20958;-76
2023/09/25 11:27:30;;;;;;;7.78;1.55;;;;;;;;;;5103533;28;20042;-74
2023/09/25 11:30:14;;;;;;;9.30;1.98;;;;;;;;;;5103061;28;20048;-74
2023/09/25 11:32:45;;;;;;;9.32;1.70;;;;;;;;;;5103370;28;20525;-74
2023/09/25 11:35:19;;;;;;;12.13;2.03;;;;;;;;;;5103308;28;20052;-75
2023/09/25 11:38:03;;;;;;;9.98;1.95;;;;;;;;;;5102836;28;20050;-75
2023/09/25 11:40:34;;;;;;;7.60;1.67;;;;;;;;;;5100835;28;20051;-73
2023/09/25 11:43:04;;;;;;;10.27;2.10;;;;;;;;;;5101958;28;20039;-74
2023/09/25 11:45:35;;;;;;;12.68;1.98;;;;;;;;;;5083968;28;20051;-77
2023/09/25 11:48:05;;;;;;;8.38;1.30;;;;;;;;;;5103355;28;20043;-76
2023/09/25 11:50:37;;;;;;;8.90;1.80;;;;;;;;;;5103518;28;20043;-75
2023/09/25 11:53:07;;;;;;;10.27;2.30;;;;;;;;;;5083569;28;20442;-74
2023/09/25 11:55:38;;;;;;;12.02;2.22;;;;;;;;;;5102799;28;20604;-73
2023/09/25 11:58:09;;;;;;;13.27;1.85;;;;;;;;;;5084785;28;20381;-74
2023/09/25 12:00:39;;;;;;;12.65;2.00;;;;;;;;;;5102603;28;20153;-73
2023/09/25 12:03:09;;;;;;;12.13;2.28;;;;;;;;;;5083620;28;20054;-74
2023/09/25 12:05:41;;;;;;;13.15;2.05;;;;;;;;;;5102755;28;20063;-73
2023/09/25 12:08:13;;;;;;;9.52;1.73;;;;;;;;;;5085148;28;20043;-73
2023/09/25 12:10:43;;;;;;;8.20;1.75;;;;;;;;;;5084105;28;20106;-77
2023/09/25 12:13:15;;;;;;;11.57;1.65;;;;;;;;;;5103330;28;20051;-74
2023/09/25 12:15:45;;;;;;;5.03;1.50;;;;;;;;;;5102994;28;20039;-74
2023/09/25 12:18:15;;;;;;;8.30;2.05;;;;;;;;;;5101976;28;20075;-74
2023/09/25 12:20:47;;;;;;;13.63;2.00;;;;;;;;;;5102512;28;20047;-74
2023/09/25 12:23:17;;;;;;;7.43;1.40;;;;;;;;;;5102163;28;20059;-74
2023/09/25 12:25:47;;;;;;;8.25;1.70;;;;;;;;;;5102672;28;20047;-74
2023/09/25 12:28:17;;;;;;;7.40;2.00;;;;;;;;;;5102331;28;20052;-74
2023/09/25 12:30:48;;;;;;;10.70;1.65;;;;;;;;;;5101582;28;20050;-74
2023/09/25 12:33:21;;;;;;;6.88;1.70;;;;;;;;;;5102494;28;20040;-74
2023/09/25 12:35:52;;;;;;;16.17;1.92;;;;;;;;;;5102496;28;20040;-74
2023/09/25 12:38:21;;;;;;;10.00;1.52;;;;;;;;;;5102773;28;20062;-75
2023/09/25 12:40:52;;;;;;;8.95;1.65;;;;;;;;;;5102953;28;20047;-73
2023/09/25 12:43:26;;;;;;;15.45;2.60;;;;;;;;;;5102449;28;20051;-74
2023/09/25 12:45:57;;;;;;;9.75;1.95;;;;;;;;;;5101805;28;20521;-73
2023/09/25 12:48:28;;;;;;;11.30;2.25;;;;;;;;;;5101724;28;20067;-74
2023/09/25 12:51:00;;;;;;;15.05;1.65;;;;;;;;;;5101720;28;20502;-73
2023/09/25 12:53:32;;;;;;;12.13;1.45;;;;;;;;;;5083381;28;20047;-80
2023/09/25 12:56:02;;;;;;;13.40;1.50;;;;;;;;;;5102016;28;20048;-80
2023/09/25 12:58:32;;;;;;;10.98;2.00;;;;;;;;;;5101961;28;20051;-73
2023/09/25 13:01:02;;;;;;;14.38;1.95;;;;;;;;;;5101747;28;20055;-73
2023/09/25 13:03:33;;;;;;;9.88;1.95;;;;;;;;;;5102068;28;20047;-73
2023/09/25 13:06:04;;;;;;;9.55;1.73;;;;;;;;;;5102238;28;20051;-75
2023/09/25 13:08:37;;;;;;;9.05;1.88;;;;;;;;;;5102178;28;20128;-73
2023/09/25 13:11:07;;;;;;;12.18;1.60;;;;;;;;;;5102361;28;20513;-72
2023/09/25 13:13:37;;;;;;;17.95;1.67;;;;;;;;;;5085062;28;20043;-73
2023/09/25 13:16:07;;;;;;;8.23;1.90;;;;;;;;;;5105912;28;20070;-73
2023/09/25 13:18:39;;;;;;;21.27;2.38;;;;;;;;;;5106766;28;20070;-73
2023/09/25 13:21:08;;;;;;;10.40;1.58;;;;;;;;;;5106226;28;20048;-74
2023/09/25 13:23:39;;;;;;;7.47;1.42;;;;;;;;;;5086355;28;20055;-73
2023/09/25 13:26:12;;;;;;;10.55;2.00;;;;;;;;;;5105583;28;20050;-74
2023/09/25 13:28:42;;;;;;;8.98;1.60;;;;;;;;;;5106582;28;20556;-74
2023/09/25 13:31:12;;;;;;;7.13;2.17;;;;;;;;;;5105169;28;20043;-74
2023/09/25 13:33:42;;;;;;;9.45;2.40;;;;;;;;;;5105712;28;20065;-74
2023/09/25 13:36:15;;;;;;;8.20;1.63;;;;;;;;;;5105228;28;20043;-79
2023/09/25 13:38:46;;;;;;;9.18;1.65;;;;;;;;;;5121514;27;20070;-74
2023/09/25 13:41:16;;;;;;;8.85;1.65;;;;;;;;;;5105307;28;20052;-74
2023/09/25 13:43:46;;;;;;;9.18;1.70;;;;;;;;;;5105543;28;20052;-73
2023/09/25 13:46:17;;;;;;;9.95;1.70;;;;;;;;;;5087956;28;20047;-74
2023/09/25 13:48:48;;;;;;;9.35;1.75;;;;;;;;;;5105439;28;20040;-73
2023/09/25 13:51:19;;;;;;;14.88;1.88;;;;;;;;;;5105789;28;20047;-74
2023/09/25 13:53:52;;;;;;;9.18;1.77;;;;;;;;;;5105364;28;20528;-73
2023/09/25 13:56:22;;;;;;;7.32;1.75;;;;;;;;;;5104968;28;20048;-73
2023/09/25 13:58:53;;;;;;;11.00;2.00;;;;;;;;;;5104804;28;20498;-73
2023/09/25 14:01:25;;;;;;;14.00;3.58;;;;;;;;;;5105506;28;20414;-72
2023/09/25 14:03:55;;;;;;;6.15;1.73;;;;;;;;;;5104967;28;20502;-73
2023/09/25 14:06:25;;;;;;;5.53;1.27;;;;;;;;;;5104797;28;20150;-73
2023/09/25 14:08:55;;;;;;;11.90;1.77;;;;;;;;;;5105091;28;20058;-72
2023/09/25 14:11:26;;;;;;;8.50;1.80;;;;;;;;;;5105202;28;20059;-72
2023/09/25 14:13:57;;;;;;;10.23;1.70;;;;;;;;;;5104696;28;20047;-72
2023/09/25 14:16:26;;;;;;;11.60;1.58;;;;;;;;;;5105382;28;20040;-80
2023/09/25 14:18:57;;;;;;;5.95;1.35;;;;;;;;;;5104873;28;20043;-73
2023/09/25 14:21:27;;;;;;;9.85;1.50;;;;;;;;;;5104167;28;20052;-73
2023/09/25 14:23:58;;;;;;;8.20;1.58;;;;;;;;;;5104800;28;20054;-73
2023/09/25 14:26:27;;;;;;;7.10;1.70;;;;;;;;;;5104281;28;20059;-74
2023/09/25 14:28:58;;;;;;;12.18;1.60;;;;;;;;;;5104878;28;20049;-74
2023/09/25 14:31:28;;;;;;;10.20;1.50;;;;;;;;;;5104190;28;20055;-73
2023/09/25 14:33:59;;;;;;;8.93;1.40;;;;;;;;;;5104461;28;20102;-73
2023/09/25 14:36:31;;;;;;;9.98;1.83;;;;;;;;;;5104502;28;20055;-76
2023/09/25 14:39:02;;;;;;;5.13;1.20;;;;;;;;;;5105187;28;20054;-74
2023/09/25 14:41:32;;;;;;;8.18;1.63;;;;;;;;;;5104371;28;20532;-74
2023/09/25 14:44:02;;;;;;;6.38;1.70;;;;;;;;;;5104191;28;20052;-74
2023/09/25 14:46:34;;;;;;;6.32;1.65;;;;;;;;;;5104166;28;20871;-74
2023/09/25 14:49:04;;;;;;;11.18;1.67;;;;;;;;;;5103987;28;20051;-74
2023/09/25 14:51:36;;;;;;;10.38;1.40;;;;;;;;;;5104302;28;20052;-74
2023/09/25 14:54:06;;;;;;;8.75;1.27;;;;;;;;;;5104008;28;20055;-74
2023/09/25 14:56:36;;;;;;;12.65;1.70;;;;;;;;;;5103764;28;20050;-74
2023/09/25 14:59:06;;;;;;;10.10;1.50;;;;;;;;;;5086325;28;20414;-74
2023/09/25 15:01:37;;;;;;;6.82;1.13;;;;;;;;;;5084661;28;20837;-74
2023/09/25 15:04:08;;;;;;;13.70;1.90;;;;;;;;;;5104452;28;20059;-73
2023/09/25 15:06:38;;;;;;;7.32;1.33;;;;;;;;;;5104459;28;20051;-74
2023/09/25 15:09:08;;;;;;;11.50;1.35;;;;;;;;;;5103648;28;20048;-74
2023/09/25 15:11:39;;;;;;;7.00;1.42;;;;;;;;;;5084347;28;20612;-73
2023/09/25 15:14:09;;;;;;;12.18;1.50;;;;;;;;;;5103823;28;20048;-73
2023/09/25 15:16:39;;;;;;;6.93;1.60;;;;;;;;;;5083960;28;20584;-73
2023/09/25 15:19:10;;;;;;;7.68;1.35;;;;;;;;;;5103861;28;20059;-73
2023/09/25 15:21:40;;;;;;;6.22;1.35;;;;;;;;;;5103011;28;20054;-73